Terminal Aerodrome Forecast
Issued by NWS Upton, NY

Current Version | Previous Version | Text Only | Print | Product List | Glossary On
Versions: 1 2 3 4 5 6 7 8 9 10 11 12 13 14 15 16 17 18 19 20 21 22 23 24 25 26 27 28 29 30 31 32 33
000 FTUS41 KOKX 061120 TAFBDR TAF KBDR 061120Z 0612/0712 04012G19KT 5SM RA BR SCT007 OVC014 FM061300 05017G23KT 3SM RA BR OVC008 FM061800 07022G28KT 1SM -SHRADZ BR OVC005 FM070000 08016KT 3/4SM -DZ BR OVC004 FM070600 08010KT 2SM -DZ BR OVC004=

USA.gov is the U.S. government's official web portal to all federal, state and local government web resources and services.